Terminal Aerodrome Forecast
Issued by NWS Duluth, MN

Home | Current Version | Previous Version | Text Only | Print | Product List | Glossary On
Versions: 1 2 3 4 5 6 7 8 9 10 11 12 13 14 15 16 17 18 19 20 21 22 23 24 25 26 27 28 29 30 31 32
111
FTUS43 KDLH 181740
TAFDLH
TAF
KDLH 181740Z 1818/1918 22011KT 4SM BR OVC006
     FM181900 22013KT P6SM BKN060
     FM182100 23011KT P6SM VCSH OVC025
     FM190400 27010G18KT P6SM OVC020
     FM190600 28010G18KT P6SM BKN020
     FM190900 29014G22KT P6SM SCT035=

USA.gov is the U.S. government's official web portal to all federal, state and local government web resources and services.